Safe, Missouri
Current Conditions -  °F | °C
As of 10:53 PM on Sunday 21 Dec 2014 (Local Time) from KVIH Reporting Station
Overcast Overcast  
Wind Chill: 32°   Ceiling: 4800
Heat Index: 39°   Visibility: 10mi
Dew Point: 32°   Wind: 10mph
Humidity: 76%   Direction: 140°SE
Pressure: 29.86"   Gusts: NA
Location:  37.9936°N, 91.5964°W
Report Text: KVIH 220453Z AUTO 14009KT 10SM BKN048 OVC070 04/00 A2986 RMK AO2 SLP118 T00390000
Loading
Personal Weather Stations






























Interactive Weather Map New forecast layout! Learn more

10-Day Weather Forecast

Advertisements
Track Severe Weather on mobile